sensor_id;sensor_type;location;lat;lon;timestamp;P1;durP1;ratioP1;P2;durP2;ratioP2
20065;SDS011;10193;48.884;9.182;2023-12-07T00:01:16;6.33;;;5.80;;
20065;SDS011;10193;48.884;9.182;2023-12-07T00:03:43;6.10;;;5.50;;
20065;SDS011;10193;48.884;9.182;2023-12-07T00:06:10;6.17;;;5.57;;
20065;SDS011;10193;48.884;9.182;2023-12-07T00:08:36;6.23;;;5.63;;
20065;SDS011;10193;48.884;9.182;2023-12-07T00:11:04;6.27;;;5.47;;
20065;SDS011;10193;48.884;9.182;2023-12-07T00:13:31;5.80;;;5.30;;
20065;SDS011;10193;48.884;9.182;2023-12-07T00:15:58;6.10;;;5.50;;
20065;SDS011;10193;48.884;9.182;2023-12-07T00:18:25;6.00;;;5.40;;
20065;SDS011;10193;48.884;9.182;2023-12-07T00:20:51;5.60;;;5.10;;
20065;SDS011;10193;48.884;9.182;2023-12-07T00:23:18;5.70;;;5.10;;
20065;SDS011;10193;48.884;9.182;2023-12-07T00:25:44;5.87;;;5.27;;
20065;SDS011;10193;48.884;9.182;2023-12-07T00:28:13;6.40;;;5.57;;
20065;SDS011;10193;48.884;9.182;2023-12-07T00:30:39;6.00;;;5.50;;
20065;SDS011;10193;48.884;9.182;2023-12-07T00:33:07;6.40;;;5.80;;
20065;SDS011;10193;48.884;9.182;2023-12-07T00:35:34;5.70;;;5.10;;
20065;SDS011;10193;48.884;9.182;2023-12-07T00:38:00;5.97;;;5.47;;
20065;SDS011;10193;48.884;9.182;2023-12-07T00:40:27;5.80;;;5.30;;
20065;SDS011;10193;48.884;9.182;2023-12-07T00:42:54;6.30;;;5.50;;
20065;SDS011;10193;48.884;9.182;2023-12-07T00:45:22;6.27;;;5.50;;
20065;SDS011;10193;48.884;9.182;2023-12-07T00:47:48;5.50;;;5.00;;
20065;SDS011;10193;48.884;9.182;2023-12-07T00:50:15;5.50;;;5.00;;
20065;SDS011;10193;48.884;9.182;2023-12-07T00:52:42;5.73;;;5.23;;
20065;SDS011;10193;48.884;9.182;2023-12-07T00:55:08;6.07;;;5.47;;
20065;SDS011;10193;48.884;9.182;2023-12-07T00:57:35;6.10;;;5.40;;
20065;SDS011;10193;48.884;9.182;2023-12-07T01:00:02;6.47;;;5.80;;
20065;SDS011;10193;48.884;9.182;2023-12-07T01:02:30;5.77;;;5.27;;
20065;SDS011;10193;48.884;9.182;2023-12-07T01:04:57;5.63;;;5.13;;
20065;SDS011;10193;48.884;9.182;2023-12-07T01:07:24;6.13;;;5.30;;
20065;SDS011;10193;48.884;9.182;2023-12-07T01:09:50;6.03;;;5.43;;
20065;SDS011;10193;48.884;9.182;2023-12-07T01:12:17;6.07;;;5.47;;
20065;SDS011;10193;48.884;9.182;2023-12-07T01:14:44;5.93;;;5.32;;
20065;SDS011;10193;48.884;9.182;2023-12-07T01:17:10;6.13;;;5.17;;
20065;SDS011;10193;48.884;9.182;2023-12-07T01:19:38;6.07;;;5.33;;
20065;SDS011;10193;48.884;9.182;2023-12-07T01:22:05;5.10;;;4.60;;
20065;SDS011;10193;48.884;9.182;2023-12-07T01:24:32;5.50;;;5.00;;
20065;SDS011;10193;48.884;9.182;2023-12-07T01:26:58;5.55;;;5.05;;
20065;SDS011;10193;48.884;9.182;2023-12-07T01:29:25;5.40;;;4.90;;
20065;SDS011;10193;48.884;9.182;2023-12-07T01:31:52;5.77;;;5.20;;
20065;SDS011;10193;48.884;9.182;2023-12-07T01:34:18;5.53;;;5.03;;
20065;SDS011;10193;48.884;9.182;2023-12-07T01:36:46;6.20;;;5.17;;
20065;SDS011;10193;48.884;9.182;2023-12-07T01:39:13;7.37;;;5.43;;
20065;SDS011;10193;48.884;9.182;2023-12-07T01:41:41;5.60;;;5.07;;
20065;SDS011;10193;48.884;9.182;2023-12-07T01:44:08;6.03;;;5.20;;
20065;SDS011;10193;48.884;9.182;2023-12-07T01:46:35;5.67;;;4.93;;
20065;SDS011;10193;48.884;9.182;2023-12-07T01:49:02;6.07;;;5.47;;
20065;SDS011;10193;48.884;9.182;2023-12-07T01:51:29;5.53;;;5.03;;
20065;SDS011;10193;48.884;9.182;2023-12-07T01:53:58;5.17;;;4.60;;
20065;SDS011;10193;48.884;9.182;2023-12-07T01:56:25;5.60;;;5.10;;
20065;SDS011;10193;48.884;9.182;2023-12-07T01:58:52;5.37;;;4.87;;
20065;SDS011;10193;48.884;9.182;2023-12-07T02:01:19;5.50;;;5.00;;
20065;SDS011;10193;48.884;9.182;2023-12-07T02:03:46;6.03;;;5.43;;
20065;SDS011;10193;48.884;9.182;2023-12-07T02:06:12;5.53;;;5.03;;
20065;SDS011;10193;48.884;9.182;2023-12-07T02:08:39;5.10;;;4.60;;
20065;SDS011;10193;48.884;9.182;2023-12-07T02:11:09;5.37;;;4.87;;
20065;SDS011;10193;48.884;9.182;2023-12-07T02:13:36;5.43;;;4.93;;
20065;SDS011;10193;48.884;9.182;2023-12-07T02:16:03;5.83;;;5.00;;
20065;SDS011;10193;48.884;9.182;2023-12-07T02:18:38;5.67;;;5.10;;
20065;SDS011;10193;48.884;9.182;2023-12-07T02:21:10;4.93;;;4.53;;
20065;SDS011;10193;48.884;9.182;2023-12-07T02:23:43;5.60;;;5.10;;
20065;SDS011;10193;48.884;9.182;2023-12-07T02:26:14;5.50;;;4.87;;
20065;SDS011;10193;48.884;9.182;2023-12-07T02:28:46;4.90;;;4.50;;
20065;SDS011;10193;48.884;9.182;2023-12-07T02:31:12;5.63;;;5.13;;
20065;SDS011;10193;48.884;9.182;2023-12-07T02:33:39;5.27;;;4.77;;
20065;SDS011;10193;48.884;9.182;2023-12-07T02:36:06;5.30;;;4.80;;
20065;SDS011;10193;48.884;9.182;2023-12-07T02:38:33;5.10;;;4.60;;
20065;SDS011;10193;48.884;9.182;2023-12-07T02:41:01;5.23;;;4.57;;
20065;SDS011;10193;48.884;9.182;2023-12-07T02:43:29;6.03;;;5.43;;
20065;SDS011;10193;48.884;9.182;2023-12-07T02:45:57;5.57;;;5.07;;
20065;SDS011;10193;48.884;9.182;2023-12-07T02:48:24;5.20;;;4.70;;
20065;SDS011;10193;48.884;9.182;2023-12-07T02:50:51;5.03;;;4.53;;
20065;SDS011;10193;48.884;9.182;2023-12-07T02:53:18;5.00;;;4.60;;
20065;SDS011;10193;48.884;9.182;2023-12-07T02:55:44;4.77;;;4.37;;
20065;SDS011;10193;48.884;9.182;2023-12-07T02:58:11;5.23;;;4.57;;
20065;SDS011;10193;48.884;9.182;2023-12-07T03:00:38;5.13;;;4.63;;
20065;SDS011;10193;48.884;9.182;2023-12-07T03:03:06;5.47;;;4.80;;
20065;SDS011;10193;48.884;9.182;2023-12-07T03:05:32;5.70;;;5.10;;
20065;SDS011;10193;48.884;9.182;2023-12-07T03:07:59;5.67;;;4.77;;
20065;SDS011;10193;48.884;9.182;2023-12-07T03:10:26;6.00;;;5.30;;
20065;SDS011;10193;48.884;9.182;2023-12-07T03:12:52;5.03;;;4.53;;
20065;SDS011;10193;48.884;9.182;2023-12-07T03:15:19;5.43;;;4.93;;
20065;SDS011;10193;48.884;9.182;2023-12-07T03:17:45;5.20;;;4.70;;
20065;SDS011;10193;48.884;9.182;2023-12-07T03:20:14;4.97;;;4.57;;
20065;SDS011;10193;48.884;9.182;2023-12-07T03:22:40;5.53;;;4.90;;
20065;SDS011;10193;48.884;9.182;2023-12-07T03:25:07;4.93;;;4.53;;
20065;SDS011;10193;48.884;9.182;2023-12-07T03:27:34;5.97;;;4.90;;
20065;SDS011;10193;48.884;9.182;2023-12-07T03:30:00;5.13;;;4.73;;
20065;SDS011;10193;48.884;9.182;2023-12-07T03:32:27;5.37;;;4.87;;
20065;SDS011;10193;48.884;9.182;2023-12-07T03:34:54;5.47;;;4.90;;
20065;SDS011;10193;48.884;9.182;2023-12-07T03:37:22;4.93;;;4.43;;
20065;SDS011;10193;48.884;9.182;2023-12-07T03:39:48;5.10;;;4.60;;
20065;SDS011;10193;48.884;9.182;2023-12-07T03:42:15;5.50;;;5.00;;
20065;SDS011;10193;48.884;9.182;2023-12-07T03:44:42;5.33;;;4.83;;
20065;SDS011;10193;48.884;9.182;2023-12-07T03:47:08;5.63;;;4.90;;
20065;SDS011;10193;48.884;9.182;2023-12-07T03:49:35;6.37;;;4.97;;
20065;SDS011;10193;48.884;9.182;2023-12-07T03:52:03;6.57;;;5.53;;
20065;SDS011;10193;48.884;9.182;2023-12-07T03:54:32;5.77;;;5.13;;
20065;SDS011;10193;48.884;9.182;2023-12-07T03:56:59;6.03;;;5.47;;
20065;SDS011;10193;48.884;9.182;2023-12-07T03:59:26;5.70;;;5.20;;
20065;SDS011;10193;48.884;9.182;2023-12-07T04:01:53;5.83;;;5.20;;
20065;SDS011;10193;48.884;9.182;2023-12-07T04:04:19;5.80;;;5.20;;
20065;SDS011;10193;48.884;9.182;2023-12-07T04:06:46;6.33;;;5.30;;
20065;SDS011;10193;48.884;9.182;2023-12-07T04:09:13;6.20;;;5.60;;
20065;SDS011;10193;48.884;9.182;2023-12-07T04:11:41;5.90;;;5.33;;
20065;SDS011;10193;48.884;9.182;2023-12-07T04:14:08;6.43;;;5.80;;
20065;SDS011;10193;48.884;9.182;2023-12-07T04:16:34;8.80;;;5.80;;
20065;SDS011;10193;48.884;9.182;2023-12-07T04:19:01;6.00;;;5.40;;
20065;SDS011;10193;48.884;9.182;2023-12-07T04:21:28;6.07;;;5.20;;
20065;SDS011;10193;48.884;9.182;2023-12-07T04:23:55;7.17;;;5.93;;
20065;SDS011;10193;48.884;9.182;2023-12-07T04:26:21;7.27;;;5.83;;
20065;SDS011;10193;48.884;9.182;2023-12-07T04:28:49;6.10;;;5.50;;
20065;SDS011;10193;48.884;9.182;2023-12-07T04:31:16;6.07;;;5.47;;
20065;SDS011;10193;48.884;9.182;2023-12-07T04:33:43;6.43;;;5.30;;
20065;SDS011;10193;48.884;9.182;2023-12-07T04:36:09;7.37;;;6.03;;
20065;SDS011;10193;48.884;9.182;2023-12-07T04:38:37;6.07;;;5.47;;
20065;SDS011;10193;48.884;9.182;2023-12-07T04:41:04;5.97;;;5.37;;
20065;SDS011;10193;48.884;9.182;2023-12-07T04:43:30;6.10;;;5.50;;
20065;SDS011;10193;48.884;9.182;2023-12-07T04:45:59;6.43;;;5.83;;
20065;SDS011;10193;48.884;9.182;2023-12-07T04:48:26;6.23;;;5.70;;
20065;SDS011;10193;48.884;9.182;2023-12-07T04:50:53;6.10;;;5.50;;
20065;SDS011;10193;48.884;9.182;2023-12-07T04:53:19;6.17;;;5.40;;
20065;SDS011;10193;48.884;9.182;2023-12-07T04:55:46;6.83;;;5.97;;
20065;SDS011;10193;48.884;9.182;2023-12-07T04:58:15;5.97;;;5.37;;
20065;SDS011;10193;48.884;9.182;2023-12-07T05:00:41;6.87;;;5.50;;
20065;SDS011;10193;48.884;9.182;2023-12-07T05:03:09;6.07;;;5.37;;
20065;SDS011;10193;48.884;9.182;2023-12-07T05:05:36;6.50;;;5.83;;
20065;SDS011;10193;48.884;9.182;2023-12-07T05:08:03;6.50;;;5.90;;
20065;SDS011;10193;48.884;9.182;2023-12-07T05:10:30;6.43;;;5.63;;
20065;SDS011;10193;48.884;9.182;2023-12-07T05:12:56;6.77;;;5.83;;
20065;SDS011;10193;48.884;9.182;2023-12-07T05:15:23;6.27;;;5.67;;
20065;SDS011;10193;48.884;9.182;2023-12-07T05:17:50;6.83;;;5.87;;
20065;SDS011;10193;48.884;9.182;2023-12-07T05:20:18;6.27;;;5.63;;
20065;SDS011;10193;48.884;9.182;2023-12-07T05:22:47;6.97;;;5.83;;
20065;SDS011;10193;48.884;9.182;2023-12-07T05:25:14;6.87;;;6.10;;
20065;SDS011;10193;48.884;9.182;2023-12-07T05:27:41;6.13;;;5.47;;
20065;SDS011;10193;48.884;9.182;2023-12-07T05:30:08;6.23;;;5.63;;
20065;SDS011;10193;48.884;9.182;2023-12-07T05:32:35;6.90;;;5.77;;
20065;SDS011;10193;48.884;9.182;2023-12-07T05:35:02;7.20;;;5.87;;
20065;SDS011;10193;48.884;9.182;2023-12-07T05:37:32;7.63;;;6.57;;
20065;SDS011;10193;48.884;9.182;2023-12-07T05:39:58;7.27;;;5.97;;
20065;SDS011;10193;48.884;9.182;2023-12-07T05:42:26;6.70;;;6.00;;
20065;SDS011;10193;48.884;9.182;2023-12-07T05:44:52;6.17;;;5.57;;
20065;SDS011;10193;48.884;9.182;2023-12-07T05:47:20;6.83;;;5.70;;
20065;SDS011;10193;48.884;9.182;2023-12-07T05:49:48;7.13;;;6.20;;
20065;SDS011;10193;48.884;9.182;2023-12-07T05:52:15;6.73;;;6.03;;
20065;SDS011;10193;48.884;9.182;2023-12-07T05:54:43;6.60;;;5.90;;
20065;SDS011;10193;48.884;9.182;2023-12-07T05:57:12;6.50;;;5.80;;
20065;SDS011;10193;48.884;9.182;2023-12-07T05:59:38;6.57;;;5.87;;
20065;SDS011;10193;48.884;9.182;2023-12-07T06:02:06;6.40;;;5.80;;
20065;SDS011;10193;48.884;9.182;2023-12-07T06:04:33;8.63;;;6.27;;
20065;SDS011;10193;48.884;9.182;2023-12-07T06:07:00;6.83;;;6.13;;
20065;SDS011;10193;48.884;9.182;2023-12-07T06:09:27;6.53;;;5.83;;
20065;SDS011;10193;48.884;9.182;2023-12-07T06:11:55;7.17;;;6.07;;
20065;SDS011;10193;48.884;9.182;2023-12-07T06:14:22;6.87;;;6.17;;
20065;SDS011;10193;48.884;9.182;2023-12-07T06:16:48;6.37;;;5.33;;
20065;SDS011;10193;48.884;9.182;2023-12-07T06:19:15;6.60;;;5.70;;
20065;SDS011;10193;48.884;9.182;2023-12-07T06:21:42;6.30;;;5.70;;
20065;SDS011;10193;48.884;9.182;2023-12-07T06:24:09;6.07;;;5.47;;
20065;SDS011;10193;48.884;9.182;2023-12-07T06:26:36;7.87;;;5.97;;
20065;SDS011;10193;48.884;9.182;2023-12-07T06:29:04;7.90;;;5.90;;
20065;SDS011;10193;48.884;9.182;2023-12-07T06:31:32;7.00;;;5.73;;
20065;SDS011;10193;48.884;9.182;2023-12-07T06:33:59;6.93;;;5.53;;
20065;SDS011;10193;48.884;9.182;2023-12-07T06:36:26;6.70;;;5.87;;
20065;SDS011;10193;48.884;9.182;2023-12-07T06:38:53;7.70;;;6.17;;
20065;SDS011;10193;48.884;9.182;2023-12-07T06:41:20;6.27;;;5.50;;
20065;SDS011;10193;48.884;9.182;2023-12-07T06:43:47;7.03;;;5.80;;
20065;SDS011;10193;48.884;9.182;2023-12-07T06:46:15;7.40;;;5.60;;
20065;SDS011;10193;48.884;9.182;2023-12-07T06:48:43;6.27;;;5.57;;
20065;SDS011;10193;48.884;9.182;2023-12-07T06:51:09;7.80;;;5.97;;
20065;SDS011;10193;48.884;9.182;2023-12-07T06:53:37;7.77;;;6.00;;
20065;SDS011;10193;48.884;9.182;2023-12-07T06:56:05;7.83;;;5.90;;
20065;SDS011;10193;48.884;9.182;2023-12-07T06:58:32;7.27;;;6.30;;
20065;SDS011;10193;48.884;9.182;2023-12-07T07:00:59;6.17;;;5.57;;
20065;SDS011;10193;48.884;9.182;2023-12-07T07:03:27;6.20;;;5.60;;
20065;SDS011;10193;48.884;9.182;2023-12-07T07:05:54;6.63;;;5.97;;
20065;SDS011;10193;48.884;9.182;2023-12-07T07:08:20;6.33;;;5.70;;
20065;SDS011;10193;48.884;9.182;2023-12-07T07:10:47;29.90;;;22.50;;
20065;SDS011;10193;48.884;9.182;2023-12-07T07:13:14;24.73;;;18.43;;
20065;SDS011;10193;48.884;9.182;2023-12-07T07:15:42;15.13;;;12.07;;
20065;SDS011;10193;48.884;9.182;2023-12-07T07:18:09;11.83;;;9.80;;
20065;SDS011;10193;48.884;9.182;2023-12-07T07:20:37;11.07;;;9.50;;
20065;SDS011;10193;48.884;9.182;2023-12-07T07:23:04;10.20;;;8.97;;
20065;SDS011;10193;48.884;9.182;2023-12-07T07:25:30;8.97;;;8.03;;
20065;SDS011;10193;48.884;9.182;2023-12-07T07:27:57;8.43;;;7.17;;
20065;SDS011;10193;48.884;9.182;2023-12-07T07:30:24;9.10;;;7.60;;
20065;SDS011;10193;48.884;9.182;2023-12-07T07:32:51;9.60;;;7.80;;
20065;SDS011;10193;48.884;9.182;2023-12-07T07:35:18;8.83;;;6.90;;
20065;SDS011;10193;48.884;9.182;2023-12-07T07:37:46;8.30;;;7.43;;
20065;SDS011;10193;48.884;9.182;2023-12-07T07:40:12;8.33;;;6.77;;
20065;SDS011;10193;48.884;9.182;2023-12-07T07:42:39;9.07;;;7.53;;
20065;SDS011;10193;48.884;9.182;2023-12-07T07:45:06;9.07;;;8.00;;
20065;SDS011;10193;48.884;9.182;2023-12-07T07:47:34;9.27;;;7.77;;
20065;SDS011;10193;48.884;9.182;2023-12-07T07:50:01;9.37;;;7.70;;
20065;SDS011;10193;48.884;9.182;2023-12-07T07:52:30;8.33;;;7.47;;
20065;SDS011;10193;48.884;9.182;2023-12-07T07:54:58;9.70;;;7.80;;
20065;SDS011;10193;48.884;9.182;2023-12-07T07:57:25;8.80;;;7.90;;
20065;SDS011;10193;48.884;9.182;2023-12-07T07:59:52;8.03;;;7.20;;
20065;SDS011;10193;48.884;9.182;2023-12-07T08:02:19;9.20;;;7.50;;
20065;SDS011;10193;48.884;9.182;2023-12-07T08:04:46;9.03;;;7.83;;
20065;SDS011;10193;48.884;9.182;2023-12-07T08:07:13;9.40;;;7.77;;
20065;SDS011;10193;48.884;9.182;2023-12-07T08:09:40;8.80;;;7.50;;
20065;SDS011;10193;48.884;9.182;2023-12-07T08:12:08;7.53;;;6.77;;
20065;SDS011;10193;48.884;9.182;2023-12-07T08:14:35;8.43;;;7.30;;
20065;SDS011;10193;48.884;9.182;2023-12-07T08:17:02;7.80;;;7.00;;
20065;SDS011;10193;48.884;9.182;2023-12-07T08:19:29;8.17;;;7.33;;
20065;SDS011;10193;48.884;9.182;2023-12-07T08:21:55;8.13;;;7.13;;
20065;SDS011;10193;48.884;9.182;2023-12-07T08:24:22;8.80;;;7.30;;
20065;SDS011;10193;48.884;9.182;2023-12-07T08:26:50;7.80;;;7.00;;
20065;SDS011;10193;48.884;9.182;2023-12-07T08:29:18;9.47;;;6.83;;
20065;SDS011;10193;48.884;9.182;2023-12-07T08:31:44;7.83;;;7.03;;
20065;SDS011;10193;48.884;9.182;2023-12-07T08:34:12;8.27;;;7.40;;
20065;SDS011;10193;48.884;9.182;2023-12-07T08:36:39;9.17;;;7.33;;
20065;SDS011;10193;48.884;9.182;2023-12-07T08:39:05;8.50;;;7.60;;
20065;SDS011;10193;48.884;9.182;2023-12-07T08:41:34;8.50;;;7.20;;
20065;SDS011;10193;48.884;9.182;2023-12-07T08:44:01;9.33;;;7.70;;
20065;SDS011;10193;48.884;9.182;2023-12-07T08:46:29;8.27;;;7.17;;
20065;SDS011;10193;48.884;9.182;2023-12-07T08:48:55;8.03;;;7.17;;
20065;SDS011;10193;48.884;9.182;2023-12-07T08:51:22;8.50;;;7.33;;
20065;SDS011;10193;48.884;9.182;2023-12-07T08:53:50;7.87;;;7.07;;
20065;SDS011;10193;48.884;9.182;2023-12-07T08:56:17;7.70;;;6.90;;
20065;SDS011;10193;48.884;9.182;2023-12-07T08:58:43;8.40;;;7.60;;
20065;SDS011;10193;48.884;9.182;2023-12-07T09:01:10;7.77;;;7.00;;
20065;SDS011;10193;48.884;9.182;2023-12-07T09:03:38;8.80;;;7.83;;
20065;SDS011;10193;48.884;9.182;2023-12-07T09:06:06;8.30;;;7.50;;
20065;SDS011;10193;48.884;9.182;2023-12-07T09:08:34;8.50;;;7.33;;
20065;SDS011;10193;48.884;9.182;2023-12-07T09:11:01;9.17;;;7.63;;
20065;SDS011;10193;48.884;9.182;2023-12-07T09:13:29;8.60;;;7.70;;
20065;SDS011;10193;48.884;9.182;2023-12-07T09:15:55;8.70;;;7.80;;
20065;SDS011;10193;48.884;9.182;2023-12-07T09:18:22;9.40;;;7.67;;
20065;SDS011;10193;48.884;9.182;2023-12-07T09:20:51;8.83;;;7.93;;
20065;SDS011;10193;48.884;9.182;2023-12-07T09:23:17;9.13;;;7.87;;
20065;SDS011;10193;48.884;9.182;2023-12-07T09:25:45;8.83;;;7.93;;
20065;SDS011;10193;48.884;9.182;2023-12-07T09:28:12;9.00;;;8.10;;
20065;SDS011;10193;48.884;9.182;2023-12-07T09:30:38;9.60;;;8.00;;
20065;SDS011;10193;48.884;9.182;2023-12-07T09:33:05;8.50;;;7.70;;
20065;SDS011;10193;48.884;9.182;2023-12-07T09:35:32;8.63;;;7.77;;
20065;SDS011;10193;48.884;9.182;2023-12-07T09:38:00;8.30;;;7.50;;
20065;SDS011;10193;48.884;9.182;2023-12-07T09:40:27;8.70;;;7.83;;
20065;SDS011;10193;48.884;9.182;2023-12-07T09:42:54;8.60;;;7.70;;
20065;SDS011;10193;48.884;9.182;2023-12-07T09:45:21;8.77;;;7.87;;
20065;SDS011;10193;48.884;9.182;2023-12-07T09:47:48;8.53;;;7.73;;
20065;SDS011;10193;48.884;9.182;2023-12-07T09:50:16;8.53;;;7.63;;
20065;SDS011;10193;48.884;9.182;2023-12-07T09:52:47;8.60;;;7.70;;
20065;SDS011;10193;48.884;9.182;2023-12-07T09:55:17;9.60;;;8.27;;
20065;SDS011;10193;48.884;9.182;2023-12-07T09:57:44;8.70;;;7.80;;
20065;SDS011;10193;48.884;9.182;2023-12-07T10:00:12;8.63;;;7.67;;
20065;SDS011;10193;48.884;9.182;2023-12-07T10:02:40;9.10;;;8.20;;
20065;SDS011;10193;48.884;9.182;2023-12-07T10:05:09;10.10;;;8.47;;
20065;SDS011;10193;48.884;9.182;2023-12-07T10:07:39;8.30;;;7.50;;
20065;SDS011;10193;48.884;9.182;2023-12-07T10:10:07;8.87;;;7.97;;
20065;SDS011;10193;48.884;9.182;2023-12-07T10:12:44;9.50;;;7.53;;
20065;SDS011;10193;48.884;9.182;2023-12-07T10:15:12;8.60;;;7.70;;
20065;SDS011;10193;48.884;9.182;2023-12-07T10:17:43;8.17;;;7.37;;
20065;SDS011;10193;48.884;9.182;2023-12-07T10:20:13;9.50;;;8.50;;
20065;SDS011;10193;48.884;9.182;2023-12-07T10:22:40;9.00;;;8.10;;
20065;SDS011;10193;48.884;9.182;2023-12-07T10:25:07;8.17;;;7.37;;
20065;SDS011;10193;48.884;9.182;2023-12-07T10:27:35;9.60;;;8.13;;
20065;SDS011;10193;48.884;9.182;2023-12-07T10:30:05;8.70;;;7.80;;
20065;SDS011;10193;48.884;9.182;2023-12-07T10:32:36;8.70;;;7.80;;
20065;SDS011;10193;48.884;9.182;2023-12-07T10:35:04;8.73;;;7.63;;
20065;SDS011;10193;48.884;9.182;2023-12-07T10:37:32;9.23;;;7.60;;
20065;SDS011;10193;48.884;9.182;2023-12-07T10:39:59;8.23;;;7.43;;
20065;SDS011;10193;48.884;9.182;2023-12-07T10:42:26;8.27;;;7.33;;
20065;SDS011;10193;48.884;9.182;2023-12-07T10:44:58;8.47;;;7.67;;
20065;SDS011;10193;48.884;9.182;2023-12-07T10:47:32;7.50;;;6.80;;
20065;SDS011;10193;48.884;9.182;2023-12-07T10:50:02;7.93;;;7.13;;
20065;SDS011;10193;48.884;9.182;2023-12-07T10:52:32;7.83;;;7.03;;
20065;SDS011;10193;48.884;9.182;2023-12-07T10:55:03;8.17;;;7.17;;
20065;SDS011;10193;48.884;9.182;2023-12-07T10:57:33;7.60;;;6.90;;
20065;SDS011;10193;48.884;9.182;2023-12-07T11:00:02;8.00;;;7.20;;
20065;SDS011;10193;48.884;9.182;2023-12-07T11:02:32;8.03;;;7.23;;
20065;SDS011;10193;48.884;9.182;2023-12-07T11:04:59;8.60;;;6.43;;
20065;SDS011;10193;48.884;9.182;2023-12-07T11:07:30;7.77;;;6.97;;
20065;SDS011;10193;48.884;9.182;2023-12-07T11:10:12;7.47;;;6.67;;
20065;SDS011;10193;48.884;9.182;2023-12-07T11:12:45;6.87;;;6.23;;
20065;SDS011;10193;48.884;9.182;2023-12-07T11:15:17;7.63;;;6.30;;
20065;SDS011;10193;48.884;9.182;2023-12-07T11:17:47;7.03;;;6.33;;
20065;SDS011;10193;48.884;9.182;2023-12-07T11:20:18;6.57;;;5.70;;
20065;SDS011;10193;48.884;9.182;2023-12-07T11:22:45;6.60;;;6.00;;
20065;SDS011;10193;48.884;9.182;2023-12-07T11:25:14;7.00;;;6.30;;
20065;SDS011;10193;48.884;9.182;2023-12-07T11:27:43;6.90;;;6.20;;
20065;SDS011;10193;48.884;9.182;2023-12-07T11:30:12;7.00;;;6.30;;
20065;SDS011;10193;48.884;9.182;2023-12-07T11:32:41;7.60;;;6.30;;
20065;SDS011;10193;48.884;9.182;2023-12-07T11:35:11;6.88;;;6.13;;
20065;SDS011;10193;48.884;9.182;2023-12-07T11:38:00;7.50;;;6.73;;
20065;SDS011;10193;48.884;9.182;2023-12-07T11:40:29;7.07;;;6.23;;
20065;SDS011;10193;48.884;9.182;2023-12-07T11:42:56;6.50;;;5.70;;
20065;SDS011;10193;48.884;9.182;2023-12-07T11:45:35;6.87;;;6.17;;
20065;SDS011;10193;48.884;9.182;2023-12-07T11:48:10;6.47;;;5.88;;
20065;SDS011;10193;48.884;9.182;2023-12-07T11:50:56;6.85;;;6.15;;
20065;SDS011;10193;48.884;9.182;2023-12-07T11:53:25;7.20;;;6.43;;
20065;SDS011;10193;48.884;9.182;2023-12-07T11:55:52;6.87;;;6.17;;
20065;SDS011;10193;48.884;9.182;2023-12-07T11:58:19;6.25;;;5.55;;
20065;SDS011;10193;48.884;9.182;2023-12-07T12:00:46;6.40;;;5.80;;
20065;SDS011;10193;48.884;9.182;2023-12-07T12:03:15;6.70;;;6.10;;
20065;SDS011;10193;48.884;9.182;2023-12-07T12:05:41;7.55;;;6.10;;
20065;SDS011;10193;48.884;9.182;2023-12-07T12:08:09;6.43;;;5.78;;
20065;SDS011;10193;48.884;9.182;2023-12-07T12:10:36;6.63;;;5.95;;
20065;SDS011;10193;48.884;9.182;2023-12-07T12:13:03;6.77;;;6.17;;
20065;SDS011;10193;48.884;9.182;2023-12-07T12:15:30;6.82;;;6.22;;
20065;SDS011;10193;48.884;9.182;2023-12-07T12:17:57;7.20;;;6.43;;
20065;SDS011;10193;48.884;9.182;2023-12-07T12:20:26;6.60;;;5.95;;
20065;SDS011;10193;48.884;9.182;2023-12-07T12:22:53;7.57;;;6.82;;
20065;SDS011;10193;48.884;9.182;2023-12-07T12:25:20;6.88;;;6.18;;
20065;SDS011;10193;48.884;9.182;2023-12-07T12:27:47;6.82;;;5.85;;
20065;SDS011;10193;48.884;9.182;2023-12-07T12:30:15;6.45;;;5.85;;
20065;SDS011;10193;48.884;9.182;2023-12-07T12:32:43;6.40;;;5.80;;
20065;SDS011;10193;48.884;9.182;2023-12-07T12:35:11;6.00;;;5.40;;
20065;SDS011;10193;48.884;9.182;2023-12-07T12:37:41;6.93;;;6.00;;
20065;SDS011;10193;48.884;9.182;2023-12-07T12:40:10;6.88;;;5.90;;
20065;SDS011;10193;48.884;9.182;2023-12-07T12:42:41;6.45;;;5.85;;
20065;SDS011;10193;48.884;9.182;2023-12-07T12:45:09;7.05;;;6.20;;
20065;SDS011;10193;48.884;9.182;2023-12-07T12:47:37;7.53;;;5.72;;
20065;SDS011;10193;48.884;9.182;2023-12-07T12:50:04;6.00;;;5.47;;
20065;SDS011;10193;48.884;9.182;2023-12-07T12:52:32;5.60;;;5.10;;
20065;SDS011;10193;48.884;9.182;2023-12-07T12:55:00;5.77;;;5.20;;
20065;SDS011;10193;48.884;9.182;2023-12-07T12:57:27;5.53;;;5.03;;
20065;SDS011;10193;48.884;9.182;2023-12-07T12:59:54;4.70;;;4.30;;
20065;SDS011;10193;48.884;9.182;2023-12-07T13:02:22;6.72;;;4.72;;
20065;SDS011;10193;48.884;9.182;2023-12-07T13:04:48;4.60;;;4.20;;
20065;SDS011;10193;48.884;9.182;2023-12-07T13:07:15;4.38;;;4.05;;
20065;SDS011;10193;48.884;9.182;2023-12-07T13:09:42;4.68;;;4.28;;
20065;SDS011;10193;48.884;9.182;2023-12-07T13:12:10;4.25;;;3.85;;
20065;SDS011;10193;48.884;9.182;2023-12-07T13:14:37;4.68;;;4.25;;
20065;SDS011;10193;48.884;9.182;2023-12-07T13:17:05;4.67;;;4.10;;
20065;SDS011;10193;48.884;9.182;2023-12-07T13:19:32;5.13;;;3.97;;
20065;SDS011;10193;48.884;9.182;2023-12-07T13:21:59;4.50;;;4.10;;
20065;SDS011;10193;48.884;9.182;2023-12-07T13:24:26;4.18;;;3.72;;
20065;SDS011;10193;48.884;9.182;2023-12-07T13:26:52;3.90;;;3.60;;
20065;SDS011;10193;48.884;9.182;2023-12-07T13:29:21;3.85;;;3.55;;
20065;SDS011;10193;48.884;9.182;2023-12-07T13:31:48;3.78;;;3.47;;
20065;SDS011;10193;48.884;9.182;2023-12-07T13:34:15;4.50;;;3.70;;
20065;SDS011;10193;48.884;9.182;2023-12-07T13:36:41;4.53;;;3.38;;
20065;SDS011;10193;48.884;9.182;2023-12-07T13:39:08;4.03;;;3.60;;
20065;SDS011;10193;48.884;9.182;2023-12-07T13:41:37;5.43;;;3.58;;
20065;SDS011;10193;48.884;9.182;2023-12-07T13:44:04;3.67;;;3.38;;
20065;SDS011;10193;48.884;9.182;2023-12-07T13:46:33;4.40;;;3.70;;
20065;SDS011;10193;48.884;9.182;2023-12-07T13:49:02;6.22;;;3.65;;
20065;SDS011;10193;48.884;9.182;2023-12-07T13:51:29;4.20;;;3.67;;
20065;SDS011;10193;48.884;9.182;2023-12-07T13:53:56;4.60;;;3.55;;
20065;SDS011;10193;48.884;9.182;2023-12-07T13:56:22;3.55;;;3.30;;
20065;SDS011;10193;48.884;9.182;2023-12-07T13:58:49;3.30;;;3.00;;
20065;SDS011;10193;48.884;9.182;2023-12-07T14:01:16;3.30;;;3.00;;
20065;SDS011;10193;48.884;9.182;2023-12-07T14:03:44;3.72;;;3.13;;
20065;SDS011;10193;48.884;9.182;2023-12-07T14:06:11;3.50;;;3.20;;
20065;SDS011;10193;48.884;9.182;2023-12-07T14:08:39;4.57;;;3.47;;
20065;SDS011;10193;48.884;9.182;2023-12-07T14:11:05;3.72;;;3.42;;
20065;SDS011;10193;48.884;9.182;2023-12-07T14:13:32;3.90;;;3.45;;
20065;SDS011;10193;48.884;9.182;2023-12-07T14:15:59;3.47;;;3.17;;
20065;SDS011;10193;48.884;9.182;2023-12-07T14:18:25;3.67;;;3.38;;
20065;SDS011;10193;48.884;9.182;2023-12-07T14:20:55;3.83;;;3.42;;
20065;SDS011;10193;48.884;9.182;2023-12-07T14:23:21;4.85;;;3.78;;
20065;SDS011;10193;48.884;9.182;2023-12-07T14:25:48;8.02;;;3.35;;
20065;SDS011;10193;48.884;9.182;2023-12-07T14:28:16;3.90;;;3.47;;
20065;SDS011;10193;48.884;9.182;2023-12-07T14:30:43;4.75;;;3.38;;
20065;SDS011;10193;48.884;9.182;2023-12-07T14:33:10;4.30;;;3.83;;
20065;SDS011;10193;48.884;9.182;2023-12-07T14:35:36;4.13;;;3.60;;
20065;SDS011;10193;48.884;9.182;2023-12-07T14:38:04;11.25;;;3.70;;
20065;SDS011;10193;48.884;9.182;2023-12-07T14:40:30;8.10;;;3.58;;
20065;SDS011;10193;48.884;9.182;2023-12-07T14:42:58;3.63;;;3.20;;
20065;SDS011;10193;48.884;9.182;2023-12-07T14:45:24;4.22;;;3.30;;
20065;SDS011;10193;48.884;9.182;2023-12-07T14:47:51;4.60;;;2.90;;
20065;SDS011;10193;48.884;9.182;2023-12-07T14:50:18;2.83;;;2.63;;